createdAt,value
2022-08-28T00:01:05.479Z,23.92
2022-08-28T00:03:32.810Z,23.98
2022-08-28T00:06:01.017Z,23.94
2022-08-28T00:08:28.833Z,23.95
2022-08-28T00:10:56.215Z,23.94
2022-08-28T00:13:25.393Z,23.90
2022-08-28T00:16:01.072Z,23.81
2022-08-28T00:18:31.300Z,23.80
2022-08-28T00:20:59.791Z,23.74
2022-08-28T00:23:40.315Z,23.74
2022-08-28T00:26:11.449Z,23.73
2022-08-28T00:28:38.596Z,23.87
2022-08-28T00:31:05.856Z,23.87
2022-08-28T00:33:35.399Z,23.72
2022-08-28T00:36:03.795Z,23.80
2022-08-28T00:38:31.502Z,23.64
2022-08-28T00:41:03.966Z,23.63
2022-08-28T00:43:41.736Z,23.64
2022-08-28T00:46:23.073Z,23.50
2022-08-28T00:48:50.925Z,23.37
2022-08-28T00:51:39.084Z,23.37
2022-08-28T00:54:08.396Z,23.11
2022-08-28T00:56:39.853Z,23.14
2022-08-28T00:59:15.643Z,23.00
2022-08-28T01:01:45.525Z,22.83
2022-08-28T01:04:20.300Z,22.71
2022-08-28T01:06:52.575Z,22.71
2022-08-28T01:09:22.938Z,22.58
2022-08-28T01:11:54.345Z,22.38
2022-08-28T01:14:23.488Z,22.56
2022-08-28T01:16:55.654Z,22.17
2022-08-28T01:19:38.010Z,21.98
2022-08-28T01:22:23.107Z,21.81
2022-08-28T01:24:54.251Z,21.70
2022-08-28T01:27:24.957Z,21.66
2022-08-28T01:29:52.311Z,21.70
2022-08-28T01:32:44.207Z,21.52
2022-08-28T01:35:18.867Z,21.54
2022-08-28T01:37:45.947Z,21.46
2022-08-28T01:40:17.804Z,21.45
2022-08-28T01:42:45.194Z,21.32
2022-08-28T01:45:18.457Z,21.24
2022-08-28T01:47:46.936Z,21.20
2022-08-28T01:50:18.679Z,21.20
2022-08-28T01:52:45.721Z,21.11
2022-08-28T01:55:13.726Z,20.79
2022-08-28T01:57:50.363Z,20.91
2022-08-28T02:00:18.780Z,21.01
2022-08-28T02:02:46.137Z,20.94
2022-08-28T02:05:13.195Z,20.88
2022-08-28T02:07:40.702Z,20.86
2022-08-28T02:10:11.128Z,20.92
2022-08-28T02:12:38.811Z,20.91
2022-08-28T02:15:07.743Z,20.98
2022-08-28T02:17:35.025Z,20.68
2022-08-28T02:20:02.395Z,20.81
2022-08-28T02:22:29.539Z,20.80
2022-08-28T02:24:56.540Z,20.74
2022-08-28T02:27:23.680Z,20.72
2022-08-28T02:29:50.993Z,20.65
2022-08-28T02:32:18.614Z,20.60
2022-08-28T02:34:45.650Z,20.77
2022-08-28T02:37:13.763Z,20.82
2022-08-28T02:39:41.405Z,20.66
2022-08-28T02:42:09.386Z,20.60
2022-08-28T02:44:36.533Z,20.59
2022-08-28T02:47:05.134Z,20.58
2022-08-28T02:49:35.537Z,20.54
2022-08-28T02:52:04.698Z,20.49
2022-08-28T02:54:31.651Z,20.55
2022-08-28T02:56:58.737Z,20.43
2022-08-28T02:59:25.796Z,20.38
2022-08-28T03:01:52.998Z,20.41
2022-08-28T03:04:20.058Z,20.52
2022-08-28T03:06:47.148Z,20.60
2022-08-28T03:09:14.157Z,20.63
2022-08-28T03:11:41.478Z,20.52
2022-08-28T03:14:08.539Z,20.56
2022-08-28T03:16:35.631Z,20.72
2022-08-28T03:19:04.015Z,20.49
2022-08-28T03:21:31.001Z,20.41
2022-08-28T03:23:58.406Z,20.38
2022-08-28T03:26:25.409Z,20.26
2022-08-28T03:28:54.085Z,20.12
2022-08-28T03:31:28.474Z,20.31
2022-08-28T03:33:56.239Z,20.30
2022-08-28T03:36:27.148Z,20.25
2022-08-28T03:38:57.287Z,20.25
2022-08-28T03:41:29.194Z,19.98
2022-08-28T03:44:01.072Z,20.15
2022-08-28T03:46:34.293Z,20.15
2022-08-28T03:49:04.852Z,20.14
2022-08-28T03:51:34.172Z,20.14
2022-08-28T03:54:04.368Z,20.20
2022-08-28T03:56:31.806Z,20.28
2022-08-28T03:59:05.252Z,20.45
2022-08-28T04:01:33.635Z,20.46
2022-08-28T04:04:01.011Z,20.48
2022-08-28T04:06:28.122Z,20.43
2022-08-28T04:08:55.855Z,20.69
2022-08-28T04:11:28.138Z,21.28
2022-08-28T04:13:55.127Z,21.80
2022-08-28T04:16:22.197Z,22.27
2022-08-28T04:18:50.137Z,22.26
2022-08-28T04:21:23.870Z,22.83
2022-08-28T04:23:51.338Z,23.08
2022-08-28T04:26:22.950Z,23.85
2022-08-28T04:28:50.728Z,24.38
2022-08-28T04:31:19.814Z,25.07
2022-08-28T04:34:05.528Z,25.82
2022-08-28T04:36:36.373Z,26.50
2022-08-28T04:39:08.577Z,27.39
2022-08-28T04:41:38.841Z,28.17
2022-08-28T04:44:07.224Z,28.77
2022-08-28T04:46:34.746Z,29.03
2022-08-28T04:49:04.298Z,29.60
2022-08-28T04:51:31.756Z,30.35
2022-08-28T04:53:59.247Z,30.44
2022-08-28T04:56:27.006Z,30.72
2022-08-28T04:58:54.835Z,31.90
2022-08-28T05:01:24.707Z,32.31
2022-08-28T05:04:00.200Z,32.66
2022-08-28T05:06:29.997Z,34.31
2022-08-28T05:08:59.140Z,34.35
2022-08-28T05:11:33.460Z,34.93
2022-08-28T05:14:07.278Z,35.24
2022-08-28T05:16:43.306Z,35.36
2022-08-28T05:19:10.943Z,36.28
2022-08-28T05:21:38.854Z,37.32
2022-08-28T05:24:07.247Z,37.35
2022-08-28T05:26:35.691Z,37.24
2022-08-28T05:29:06.969Z,37.09
2022-08-28T05:31:35.176Z,37.89
2022-08-28T05:34:04.473Z,38.16
2022-08-28T05:36:37.181Z,38.77
2022-08-28T05:39:08.862Z,38.65
2022-08-28T05:41:37.074Z,38.77
2022-08-28T05:44:08.676Z,38.66
2022-08-28T05:46:42.774Z,40.02
2022-08-28T05:49:10.694Z,40.89
2022-08-28T05:51:41.671Z,39.70
2022-08-28T05:54:09.238Z,40.35
2022-08-28T05:56:40.545Z,41.13
2022-08-28T05:59:09.131Z,42.17
2022-08-28T06:01:42.287Z,42.15
2022-08-28T06:04:25.610Z,42.69
2022-08-28T06:06:53.410Z,41.96
2022-08-28T06:09:29.662Z,42.28
2022-08-28T06:12:02.891Z,42.34
2022-08-28T06:14:31.294Z,42.83
2022-08-28T06:17:00.050Z,43.34
2022-08-28T06:19:30.118Z,43.18
2022-08-28T06:22:01.500Z,42.92
2022-08-28T06:24:34.915Z,43.86
2022-08-28T06:27:02.001Z,43.45
2022-08-28T06:29:29.420Z,43.52
2022-08-28T06:32:04.905Z,43.57
2022-08-28T06:34:32.080Z,43.92
2022-08-28T06:36:59.406Z,44.00
2022-08-28T06:39:27.064Z,43.93
2022-08-28T06:41:54.258Z,44.89
2022-08-28T06:44:21.816Z,44.60
2022-08-28T06:46:52.511Z,44.04
2022-08-28T06:49:20.107Z,44.44
2022-08-28T06:51:47.218Z,44.50
2022-08-28T06:54:21.116Z,44.80
2022-08-28T06:56:48.806Z,44.31
2022-08-28T06:59:16.052Z,44.74
2022-08-28T07:01:43.201Z,44.38
2022-08-28T07:04:13.737Z,44.57
2022-08-28T07:06:53.834Z,44.62
2022-08-28T07:09:23.144Z,44.60
2022-08-28T07:11:51.118Z,43.77
2022-08-28T07:14:18.437Z,44.82
2022-08-28T07:16:46.074Z,44.81
2022-08-28T07:19:14.203Z,45.82
2022-08-28T07:21:44.919Z,44.16
2022-08-28T07:24:15.287Z,44.80
2022-08-28T07:26:44.301Z,43.62
2022-08-28T07:29:12.121Z,43.22
2022-08-28T07:31:50.432Z,43.82
2022-08-28T07:34:21.671Z,43.90
2022-08-28T07:36:54.182Z,43.45
2022-08-28T07:39:21.264Z,42.81
2022-08-28T07:41:48.552Z,43.60
2022-08-28T07:44:34.876Z,42.71
2022-08-28T07:47:05.795Z,42.53
2022-08-28T07:49:34.682Z,42.18
2022-08-28T07:52:02.940Z,42.72
2022-08-28T07:54:29.939Z,42.64
2022-08-28T07:56:57.089Z,42.56
2022-08-28T07:59:24.421Z,42.22
2022-08-28T08:01:52.234Z,42.27
2022-08-28T08:04:21.583Z,41.42
2022-08-28T08:06:54.386Z,41.57
2022-08-28T08:09:24.261Z,41.43
2022-08-28T08:11:51.320Z,41.05
2022-08-28T08:14:18.491Z,41.85
2022-08-28T08:16:47.469Z,41.42
2022-08-28T08:19:16.182Z,40.93
2022-08-28T08:21:48.329Z,40.63
2022-08-28T08:24:21.158Z,40.52
2022-08-28T08:26:56.517Z,40.23
2022-08-28T08:29:31.627Z,40.47
2022-08-28T08:32:06.061Z,40.64
2022-08-28T08:34:38.635Z,40.35
2022-08-28T08:37:06.450Z,38.86
2022-08-28T08:39:35.543Z,39.29
2022-08-28T08:42:07.038Z,38.61
2022-08-28T08:44:42.399Z,38.33
2022-08-28T08:47:51.372Z,38.41
2022-08-28T08:50:34.476Z,38.50
2022-08-28T08:53:22.740Z,38.29
2022-08-28T08:55:54.379Z,37.94
2022-08-28T08:58:34.293Z,37.85
2022-08-28T09:01:25.690Z,37.80
2022-08-28T09:04:03.922Z,37.99
2022-08-28T09:07:13.102Z,37.67
2022-08-28T09:09:53.430Z,37.89
2022-08-28T09:12:27.792Z,37.98
2022-08-28T09:15:18.053Z,38.06
2022-08-28T09:18:15.270Z,38.35
2022-08-28T09:20:42.381Z,38.36
2022-08-28T09:23:12.855Z,38.25
2022-08-28T09:25:59.591Z,38.01
2022-08-28T09:28:30.649Z,37.79
2022-08-28T09:31:03.915Z,38.07
2022-08-28T09:33:48.217Z,38.61
2022-08-28T09:36:37.168Z,39.13
2022-08-28T09:39:05.523Z,38.17
2022-08-28T09:41:54.157Z,37.65
2022-08-28T09:44:21.205Z,38.51
2022-08-28T09:46:51.167Z,37.83
2022-08-28T09:49:28.753Z,37.28
2022-08-28T09:51:59.709Z,37.57
2022-08-28T09:54:41.321Z,37.28
2022-08-28T09:57:08.389Z,37.51
2022-08-28T09:59:35.387Z,37.76
2022-08-28T10:02:49.454Z,38.00
2022-08-28T10:05:28.871Z,37.79
2022-08-28T10:08:09.357Z,37.55
2022-08-28T10:10:55.699Z,36.76
2022-08-28T10:13:39.380Z,36.23
2022-08-28T10:16:14.398Z,36.86
2022-08-28T10:19:02.566Z,37.07
2022-08-28T10:22:10.885Z,37.73
2022-08-28T10:25:05.106Z,37.77
2022-08-28T10:27:50.141Z,37.57
2022-08-28T10:30:23.354Z,38.04
2022-08-28T10:33:07.989Z,37.94
2022-08-28T10:35:55.857Z,38.19
2022-08-28T10:38:47.269Z,38.18
2022-08-28T10:41:41.182Z,38.91
2022-08-28T10:44:11.140Z,38.23
2022-08-28T10:46:49.273Z,37.75
2022-08-28T10:49:49.449Z,37.47
2022-08-28T10:52:31.206Z,38.32
2022-08-28T10:55:24.235Z,38.04
2022-08-28T10:57:58.286Z,38.56
2022-08-28T11:00:28.683Z,38.14
2022-08-28T11:03:32.694Z,37.02
2022-08-28T11:06:11.659Z,37.15
2022-08-28T11:08:39.962Z,36.74
2022-08-28T11:11:35.051Z,36.72
2022-08-28T11:14:02.222Z,36.63
2022-08-28T11:16:30.307Z,36.46
2022-08-28T11:19:40.861Z,36.61
2022-08-28T11:22:48.225Z,36.41
2022-08-28T11:25:32.723Z,36.38
2022-08-28T11:28:24.559Z,35.98
2022-08-28T11:31:06.680Z,35.85
2022-08-28T11:33:53.064Z,35.98
2022-08-28T11:36:20.035Z,36.08
2022-08-28T11:38:53.306Z,35.79
2022-08-28T11:41:35.323Z,35.85
2022-08-28T11:44:11.467Z,36.38
2022-08-28T11:46:50.939Z,36.40
2022-08-28T11:49:24.601Z,35.94
2022-08-28T11:52:24.990Z,35.87
2022-08-28T11:55:21.901Z,35.77
2022-08-28T12:00:56.155Z,36.04
2022-08-28T12:03:40.717Z,36.15
2022-08-28T12:06:08.955Z,36.02
2022-08-28T12:08:45.112Z,36.04
2022-08-28T12:11:40.782Z,35.76
2022-08-28T12:14:09.517Z,35.54
2022-08-28T12:17:00.965Z,35.21
2022-08-28T12:19:52.560Z,35.48
2022-08-28T12:22:39.366Z,35.31
2022-08-28T12:25:36.065Z,35.39
2022-08-28T12:28:33.941Z,35.39
2022-08-28T12:31:52.602Z,35.63
2022-08-28T12:34:31.336Z,35.33
2022-08-28T12:37:02.224Z,35.47
2022-08-28T12:39:33.019Z,35.60
2022-08-28T12:42:03.494Z,35.34
2022-08-28T12:44:33.657Z,35.26
2022-08-28T12:47:00.879Z,35.18
2022-08-28T12:49:37.169Z,34.94
2022-08-28T12:52:23.146Z,34.70
2022-08-28T12:54:55.235Z,34.62
2022-08-28T12:57:25.344Z,34.47
2022-08-28T13:00:09.340Z,34.69
2022-08-28T13:02:36.617Z,34.76
2022-08-28T13:05:30.057Z,34.51
2022-08-28T13:07:59.993Z,34.79
2022-08-28T13:10:39.700Z,35.20
2022-08-28T13:13:19.879Z,35.08
2022-08-28T13:16:09.345Z,34.82
2022-08-28T13:18:55.376Z,35.01
2022-08-28T13:21:33.467Z,35.21
2022-08-28T13:24:20.581Z,35.37
2022-08-28T13:26:50.437Z,35.25
2022-08-28T13:29:24.341Z,35.24
2022-08-28T13:32:17.988Z,35.43
2022-08-28T13:35:09.403Z,35.14
2022-08-28T13:37:48.478Z,35.00
2022-08-28T13:40:53.272Z,35.31
2022-08-28T13:43:11.858Z,35.41
2022-08-28T13:45:43.912Z,35.37
2022-08-28T13:48:17.462Z,34.89
2022-08-28T13:50:49.767Z,35.32
2022-08-28T13:53:20.803Z,35.03
2022-08-28T13:55:50.321Z,34.96
2022-08-28T13:58:17.970Z,34.93
2022-08-28T14:00:49.704Z,34.86
2022-08-28T14:03:35.744Z,35.17
2022-08-28T14:06:12.866Z,34.86
2022-08-28T14:08:41.572Z,34.90
2022-08-28T14:11:12.741Z,35.17
2022-08-28T14:13:47.256Z,35.20
2022-08-28T14:16:25.002Z,34.74
2022-08-28T14:18:53.022Z,34.64
2022-08-28T14:21:21.159Z,34.57
2022-08-28T14:23:48.129Z,34.75
2022-08-28T14:26:15.157Z,34.69
2022-08-28T14:28:42.804Z,34.92
2022-08-28T14:31:14.217Z,34.65
2022-08-28T14:33:42.483Z,34.53
2022-08-28T14:36:22.511Z,34.56
2022-08-28T14:38:54.002Z,34.35
2022-08-28T14:41:23.134Z,34.29
2022-08-28T14:43:50.811Z,34.37
2022-08-28T14:46:24.509Z,34.43
2022-08-28T14:48:51.964Z,34.59
2022-08-28T14:51:19.169Z,33.93
2022-08-28T14:53:46.875Z,33.74
2022-08-28T14:56:13.923Z,33.70
2022-08-28T14:58:41.078Z,33.69
2022-08-28T15:01:08.168Z,33.85
2022-08-28T15:03:35.294Z,33.93
2022-08-28T15:06:09.292Z,33.63
2022-08-28T15:08:37.582Z,33.49
2022-08-28T15:11:10.051Z,33.26
2022-08-28T15:13:37.962Z,33.39
2022-08-28T15:16:16.083Z,33.37
2022-08-28T15:18:44.966Z,32.77
2022-08-28T15:21:32.780Z,32.11
2022-08-28T15:24:02.450Z,32.43
2022-08-28T15:26:31.292Z,32.28
2022-08-28T15:29:02.472Z,32.50
2022-08-28T15:31:49.006Z,32.42
2022-08-28T15:34:28.553Z,32.51
2022-08-28T15:36:57.107Z,32.58
2022-08-28T15:39:45.516Z,32.38
2022-08-28T15:42:13.057Z,32.40
2022-08-28T15:44:40.240Z,32.49
2022-08-28T15:47:08.014Z,32.64
2022-08-28T15:49:43.351Z,32.53
2022-08-28T15:52:14.095Z,32.36
2022-08-28T15:54:41.710Z,32.26
2022-08-28T15:57:08.702Z,32.13
2022-08-28T15:59:42.382Z,32.14
2022-08-28T16:02:16.583Z,32.03
2022-08-28T16:04:43.740Z,31.90
2022-08-28T16:07:11.183Z,31.86
2022-08-28T16:09:38.260Z,31.83
2022-08-28T16:12:06.616Z,31.65
2022-08-28T16:14:34.122Z,31.56
2022-08-28T16:17:05.477Z,31.51
2022-08-28T16:19:41.092Z,31.53
2022-08-28T16:22:13.044Z,31.41
2022-08-28T16:24:40.000Z,31.42
2022-08-28T16:27:09.684Z,31.30
2022-08-28T16:29:40.557Z,31.03
2022-08-28T16:32:07.894Z,31.13
2022-08-28T16:34:35.519Z,30.94
2022-08-28T16:37:04.453Z,30.92
2022-08-28T16:39:31.787Z,30.80
2022-08-28T16:41:58.948Z,30.84
2022-08-28T16:44:26.700Z,30.70
2022-08-28T16:46:55.628Z,30.63
2022-08-28T16:49:23.752Z,30.61
2022-08-28T16:51:51.146Z,30.51
2022-08-28T16:54:18.825Z,30.44
2022-08-28T16:56:46.175Z,30.42
2022-08-28T16:59:20.503Z,30.35
2022-08-28T17:01:53.683Z,30.28
2022-08-28T17:04:21.742Z,30.17
2022-08-28T17:06:49.169Z,30.11
2022-08-28T17:09:16.190Z,30.20
2022-08-28T17:11:43.335Z,30.10
2022-08-28T17:14:12.106Z,30.06
2022-08-28T17:16:39.335Z,29.83
2022-08-28T17:19:06.461Z,29.93
2022-08-28T17:21:52.063Z,29.85
2022-08-28T17:24:19.683Z,29.79
2022-08-28T17:26:47.103Z,29.65
2022-08-28T17:29:14.189Z,29.62
2022-08-28T17:31:41.443Z,29.53
2022-08-28T17:34:08.752Z,29.44
2022-08-28T17:36:38.816Z,29.29
2022-08-28T17:39:10.220Z,28.67
2022-08-28T17:41:37.431Z,28.48
2022-08-28T17:44:05.230Z,28.14
2022-08-28T17:46:37.400Z,27.94
2022-08-28T17:49:07.193Z,27.86
2022-08-28T17:51:42.952Z,27.64
2022-08-28T17:54:18.386Z,27.41
2022-08-28T17:56:46.521Z,26.72
2022-08-28T17:59:14.746Z,26.96
2022-08-28T18:01:44.668Z,26.96
2022-08-28T18:04:13.120Z,26.96
2022-08-28T18:06:40.477Z,26.94
2022-08-28T18:09:09.488Z,26.84
2022-08-28T18:11:37.533Z,26.30
2022-08-28T18:14:05.150Z,26.38
2022-08-28T18:16:34.803Z,26.22
2022-08-28T18:19:03.806Z,26.31
2022-08-28T18:21:31.749Z,26.27
2022-08-28T18:23:58.957Z,26.01
2022-08-28T18:26:26.183Z,26.12
2022-08-28T18:28:53.502Z,25.86
2022-08-28T18:31:20.645Z,25.85
2022-08-28T18:33:47.740Z,26.00
2022-08-28T18:36:16.318Z,25.71
2022-08-28T18:38:44.707Z,25.83
2022-08-28T18:41:12.196Z,25.72
2022-08-28T18:43:39.523Z,25.84
2022-08-28T18:46:09.466Z,25.43
2022-08-28T18:48:38.062Z,25.32
2022-08-28T18:51:10.855Z,25.24
2022-08-28T18:53:38.856Z,25.18
2022-08-28T18:56:10.048Z,25.10
2022-08-28T18:58:40.967Z,25.02
2022-08-28T19:01:09.404Z,25.09
2022-08-28T19:03:36.836Z,24.85
2022-08-28T19:06:06.290Z,24.91
2022-08-28T19:08:35.312Z,24.87
2022-08-28T19:11:11.871Z,24.79
2022-08-28T19:13:41.059Z,24.81
2022-08-28T19:16:08.940Z,24.81
2022-08-28T19:18:36.122Z,24.60
2022-08-28T19:21:16.326Z,24.50
2022-08-28T19:23:51.817Z,24.50
2022-08-28T19:26:22.877Z,24.64
2022-08-28T19:28:50.663Z,24.69
2022-08-28T19:31:18.339Z,24.60
2022-08-28T19:33:46.863Z,24.46
2022-08-28T19:36:14.771Z,24.51
2022-08-28T19:38:42.381Z,24.72
2022-08-28T19:41:11.059Z,24.61
2022-08-28T19:43:42.952Z,24.56
2022-08-28T19:46:19.377Z,24.72
2022-08-28T19:48:52.138Z,24.71
2022-08-28T19:51:23.091Z,24.68
2022-08-28T19:53:58.308Z,24.52
2022-08-28T19:56:28.231Z,24.53
2022-08-28T19:59:01.093Z,24.40
2022-08-28T20:01:31.444Z,24.41
2022-08-28T20:03:59.978Z,24.30
2022-08-28T20:06:28.387Z,24.41
2022-08-28T20:08:55.598Z,24.21
2022-08-28T20:11:30.069Z,24.17
2022-08-28T20:14:04.581Z,24.34
2022-08-28T20:16:35.492Z,24.42
2022-08-28T20:19:04.343Z,24.25
2022-08-28T20:21:37.869Z,24.22
2022-08-28T20:24:13.287Z,24.10
2022-08-28T20:26:40.762Z,23.99
2022-08-28T20:29:09.088Z,23.90
2022-08-28T20:31:40.551Z,23.91
2022-08-28T20:34:10.606Z,23.90
2022-08-28T20:36:38.573Z,23.81
2022-08-28T20:39:09.196Z,23.89
2022-08-28T20:41:38.867Z,23.79
2022-08-28T20:44:07.835Z,23.68
2022-08-28T20:46:40.523Z,23.90
2022-08-28T20:49:11.455Z,23.68
2022-08-28T20:51:56.675Z,23.70
2022-08-28T20:54:34.747Z,23.55
2022-08-28T20:59:35.418Z,23.24
2022-08-28T21:02:13.421Z,23.39
2022-08-28T21:04:42.407Z,23.41
2022-08-28T21:07:10.622Z,23.42
2022-08-28T21:10:03.863Z,23.42
2022-08-28T21:12:25.107Z,23.52
2022-08-28T21:14:53.105Z,23.67
2022-08-28T21:17:28.886Z,23.57
2022-08-28T21:20:01.432Z,23.60
2022-08-28T21:22:31.565Z,23.60
2022-08-28T21:24:59.161Z,23.62
2022-08-28T21:27:26.849Z,23.53
2022-08-28T21:29:59.289Z,23.62
2022-08-28T21:32:28.671Z,23.61
2022-08-28T21:34:56.098Z,23.48
2022-08-28T21:37:23.995Z,23.49
2022-08-28T21:39:52.401Z,23.51
2022-08-28T21:42:21.028Z,23.24
2022-08-28T21:44:51.548Z,23.21
2022-08-28T21:47:23.227Z,23.39
2022-08-28T21:49:53.303Z,23.35
2022-08-28T21:52:23.116Z,23.39
2022-08-28T21:54:50.556Z,23.45
2022-08-28T21:57:17.828Z,23.44
2022-08-28T21:59:44.909Z,23.29
2022-08-28T22:02:12.009Z,23.24
2022-08-28T22:04:39.177Z,23.07
2022-08-28T22:07:06.698Z,23.02
2022-08-28T22:09:33.699Z,23.00
2022-08-28T22:12:01.438Z,23.09
2022-08-28T22:14:28.775Z,23.15
2022-08-28T22:16:56.754Z,23.11
2022-08-28T22:19:23.914Z,23.13
2022-08-28T22:22:09.679Z,23.02
2022-08-28T22:24:37.617Z,23.06
2022-08-28T22:27:05.872Z,23.27
2022-08-28T22:29:36.531Z,23.17
2022-08-28T22:32:06.499Z,23.03
2022-08-28T22:34:45.233Z,23.19
2022-08-28T22:37:13.696Z,23.07
2022-08-28T22:39:42.559Z,23.24
2022-08-28T22:42:10.287Z,23.07
2022-08-28T22:44:38.546Z,23.12
2022-08-28T22:47:06.572Z,22.96
2022-08-28T22:49:33.656Z,22.98
2022-08-28T22:52:03.242Z,23.03
2022-08-28T22:54:33.263Z,23.16
2022-08-28T22:57:00.233Z,23.13
2022-08-28T22:59:28.062Z,23.17
2022-08-28T23:01:55.252Z,23.10
2022-08-28T23:04:22.365Z,23.01
2022-08-28T23:06:49.837Z,22.96
2022-08-28T23:09:16.785Z,23.03
2022-08-28T23:11:44.034Z,22.91
2022-08-28T23:14:11.106Z,22.81
2022-08-28T23:16:38.650Z,22.76
2022-08-28T23:19:09.623Z,22.56
2022-08-28T23:21:43.771Z,22.73
2022-08-28T23:24:16.315Z,22.57
2022-08-28T23:26:45.172Z,22.49
2022-08-28T23:29:12.814Z,22.66
2022-08-28T23:31:40.035Z,22.45
2022-08-28T23:34:07.712Z,22.43
2022-08-28T23:36:35.957Z,22.42
2022-08-28T23:39:05.081Z,22.29
2022-08-28T23:41:33.109Z,22.30
2022-08-28T23:44:03.175Z,22.24
2022-08-28T23:46:32.436Z,22.33
2022-08-28T23:48:59.907Z,22.49
2022-08-28T23:51:27.022Z,22.59
2022-08-28T23:53:55.152Z,22.50
2022-08-28T23:56:22.200Z,22.54
2022-08-28T23:58:55.065Z,22.66
